Time;durP1;ratioP1;P1;durP2;ratioP2;P2;SDS_P1;SDS_P2;PMS_P1;PMS_P2;Temp;Humidity;BMP_temperature;BMP_pressure;BME280_temperature;BME280_humidity;BME280_pressure;Samples;Min_cycle;Max_cycle;Signal;HPM_P1;HPM_P2
2021/12/06 00:01:45;;;;;;;;;;;;;;;7.91;95.97;99104.81;4975743;28;804;-57
2021/12/06 00:04:14;;;;;;;;;;;;;;;7.94;96.17;99099.28;4974878;28;993;-57
2021/12/06 00:06:43;;;;;;;;;;;;;;;7.96;96.53;99101.66;4974893;28;883;-58
2021/12/06 00:39:50;;;;;;;;;;;;;;;7.97;95.75;99098.47;4966138;28;1930;-57
2021/12/06 00:42:17;;;;;;;;;;;;;;;8.00;96.04;99099.66;4974251;28;828;-57
2021/12/06 00:44:44;;;;;;;;;;;;;;;8.00;96.37;99090.59;4974100;28;887;-57
2021/12/06 00:47:11;;;;;;;;;;;;;;;8.03;96.61;99085.09;4974091;28;895;-58
2021/12/06 00:49:38;;;;;;;;;;;;;;;8.07;96.81;99088.59;4973957;28;1977;-58
2021/12/06 00:52:05;;;;;;;;;;;;;;;8.12;96.43;99092.91;4974056;28;860;-58
2021/12/06 00:54:34;;;;;;;;;;;;;;;8.16;97.28;99088.94;4973894;28;821;-58
2021/12/06 00:57:04;;;;;;;;;;;;;;;8.29;97.18;99085.72;4973809;28;939;-57
2021/12/06 00:59:30;;;;;;;;;;;;;;;8.39;96.79;99087.59;4973862;28;832;-57
2021/12/06 01:01:57;;;;;;;;;;;;;;;8.47;97.01;99066.31;4973549;28;907;-57
2021/12/06 01:04:24;;;;;;;;;;;;;;;8.53;97.09;99068.22;4973651;28;1648;-58
2021/12/06 01:06:50;;;;;;;;;;;;;;;8.58;97.15;99073.31;4956347;28;943;-58
2021/12/06 01:09:17;;;;;;;;;;;;;;;8.61;96.99;99077.22;4973470;28;1907;-57
2021/12/06 01:11:44;;;;;;;;;;;;;;;8.62;96.91;99070.53;4973495;28;935;-57
2021/12/06 01:14:10;;;;;;;;;;;;;;;8.64;96.79;99073.66;4973620;28;868;-56
2021/12/06 01:16:37;;;;;;;;;;;;;;;8.64;96.58;99079.19;4973454;28;840;-57
2021/12/06 01:19:03;;;;;;;;;;;;;;;8.44;96.05;99092.69;4973557;28;884;-58
2021/12/06 01:21:52;;;;;;;;;;;;;;;8.23;96.30;99084.56;4973469;28;864;-58
2021/12/06 01:24:26;;;;;;;;;;;;;;;8.06;96.69;99080.75;4955842;28;2481;-58
2021/12/06 01:30:06;;;;;;;;;;;;;;;8.01;96.79;99064.66;4973216;28;1878;-57
2021/12/06 01:40:28;;;;;;;;;;;;;;;8.07;96.82;99058.34;4973042;28;1258;-58
2021/12/06 01:42:55;;;;;;;;;;;;;;;8.07;97.22;99061.09;4973126;28;805;-57
2021/12/06 01:45:20;;;;;;;;;;;;;;;8.12;96.98;99059.88;4973118;28;817;-57
2021/12/06 01:47:47;;;;;;;;;;;;;;;8.13;96.72;99067.72;4955588;28;2433;-57
2021/12/06 01:50:16;;;;;;;;;;;;;;;8.14;97.18;99065.75;4972924;28;2008;-58
2021/12/06 01:52:45;;;;;;;;;;;;;;;8.17;97.04;99068.50;4972994;28;844;-57
2021/12/06 01:55:14;;;;;;;;;;;;;;;8.19;96.83;99062.56;4972887;28;998;-57
2021/12/06 01:57:41;;;;;;;;;;;;;;;8.18;96.73;99061.00;4972926;28;872;-57
2021/12/06 02:00:11;;;;;;;;;;;;;;;8.19;96.92;99051.56;4972858;28;813;-57
2021/12/06 02:02:38;;;;;;;;;;;;;;;8.21;96.65;99051.16;4972754;28;1154;-57
2021/12/06 02:05:04;;;;;;;;;;;;;;;8.22;96.89;99052.72;4973046;28;821;-58
2021/12/06 02:07:31;;;;;;;;;;;;;;;8.23;97.15;99038.53;4972679;28;876;-57
2021/12/06 02:09:59;;;;;;;;;;;;;;;8.25;96.96;99035.41;4972548;28;1943;-57
2021/12/06 02:12:28;;;;;;;;;;;;;;;8.25;97.13;99025.16;4972366;28;857;-58
2021/12/06 02:15:02;;;;;;;;;;;;;;;8.25;97.04;99033.41;4973225;28;845;-58
2021/12/06 02:17:33;;;;;;;;;;;;;;;8.27;97.14;99035.78;4972613;28;884;-57
2021/12/06 02:20:08;;;;;;;;;;;;;;;8.27;96.81;99030.25;4972606;28;943;-58
2021/12/06 02:22:36;;;;;;;;;;;;;;;8.26;97.05;99025.97;4972517;28;856;-57
2021/12/06 02:25:07;;;;;;;;;;;;;;;8.24;96.87;99026.34;4972580;28;879;-57
2021/12/06 02:27:33;;;;;;;;;;;;;;;8.23;96.99;99019.28;4972535;28;916;-57
2021/12/06 02:30:03;;;;;;;;;;;;;;;8.24;96.98;99023.59;4972593;28;1883;-58
2021/12/06 02:32:30;;;;;;;;;;;;;;;8.25;97.13;99027.13;4972756;28;824;-58
2021/12/06 02:34:57;;;;;;;;;;;;;;;8.26;97.24;99026.75;4972549;28;844;-57
2021/12/06 02:37:24;;;;;;;;;;;;;;;8.26;97.18;99025.97;4972300;28;1084;-57
2021/12/06 02:39:53;;;;;;;;;;;;;;;8.29;97.06;99025.91;4972304;28;1428;-58
2021/12/06 02:42:20;;;;;;;;;;;;;;;8.31;97.31;99023.53;4972403;28;978;-58
2021/12/06 02:44:47;;;;;;;;;;;;;;;8.33;97.09;99021.16;4972380;28;911;-58
2021/12/06 02:47:15;;;;;;;;;;;;;;;8.34;97.17;99022.75;4972383;28;926;-58
2021/12/06 02:49:42;;;;;;;;;;;;;;;8.33;97.09;99017.63;4972424;28;1906;-58
2021/12/06 02:52:11;;;;;;;;;;;;;;;8.35;97.25;99026.28;4972397;28;816;-57
2021/12/06 02:54:38;;;;;;;;;;;;;;;8.37;97.12;99016.41;4972482;28;959;-58
2021/12/06 02:59:38;;;;;;;;;;;;;;;8.43;97.13;99008.53;4972338;28;694;-58
2021/12/06 03:02:07;;;;;;;;;;;;;;;8.44;97.11;98998.28;4972294;28;809;-58
2021/12/06 03:04:34;;;;;;;;;;;;;;;8.46;96.74;99004.94;4972310;28;875;-58
2021/12/06 03:07:01;;;;;;;;;;;;;;;8.47;97.02;98994.72;4972093;28;975;-58
2021/12/06 03:09:29;;;;;;;;;;;;;;;8.50;96.94;99008.47;4972154;28;1959;-58
2021/12/06 03:11:59;;;;;;;;;;;;;;;8.52;96.76;98999.78;4972232;28;867;-58
2021/12/06 03:14:27;;;;;;;;;;;;;;;8.54;96.70;98995.44;4972339;28;825;-58
2021/12/06 03:16:56;;;;;;;;;;;;;;;8.55;96.96;98998.97;4955226;28;817;-58
2021/12/06 03:19:23;;;;;;;;;;;;;;;8.54;96.80;99000.94;4971980;28;908;-58
2021/12/06 03:21:50;;;;;;;;;;;;;;;8.50;96.83;99002.19;4972164;28;793;-58
2021/12/06 03:24:17;;;;;;;;;;;;;;;8.47;96.82;99002.97;4972141;28;876;-58
2021/12/06 03:26:44;;;;;;;;;;;;;;;8.44;96.77;98995.53;4975074;28;809;-58
2021/12/06 03:29:11;;;;;;;;;;;;;;;8.42;97.31;98995.94;4975809;28;813;-58
2021/12/06 03:31:39;;;;;;;;;;;;;;;8.40;97.27;99003.78;4975455;28;1895;-58
2021/12/06 03:34:07;;;;;;;;;;;;;;;8.38;97.31;98997.91;4975494;28;935;-58
2021/12/06 03:36:34;;;;;;;;;;;;;;;8.36;96.85;98994.78;4975349;28;825;-58
2021/12/06 03:39:03;;;;;;;;;;;;;;;8.36;96.94;98998.34;4975261;28;1070;-58
2021/12/06 03:41:30;;;;;;;;;;;;;;;8.35;97.28;98991.25;4975070;28;1475;-58
2021/12/06 03:43:58;;;;;;;;;;;;;;;8.38;97.14;98984.94;4975322;28;808;-58
2021/12/06 03:46:25;;;;;;;;;;;;;;;8.39;97.42;98991.22;4975181;28;971;-58
2021/12/06 03:48:51;;;;;;;;;;;;;;;8.38;97.00;98984.13;4975180;28;832;-58
2021/12/06 03:51:18;;;;;;;;;;;;;;;8.37;97.13;98974.34;4975069;28;1911;-58
2021/12/06 03:53:44;;;;;;;;;;;;;;;8.34;97.33;98978.69;4975292;28;864;-58
2021/12/06 03:56:12;;;;;;;;;;;;;;;8.35;97.08;98976.72;4975045;28;837;-58
2021/12/06 03:58:39;;;;;;;;;;;;;;;8.40;97.46;98981.75;4975223;28;821;-58
2021/12/06 04:01:06;;;;;;;;;;;;;;;8.44;97.38;98988.06;4974998;28;884;-58
2021/12/06 04:03:35;;;;;;;;;;;;;;;8.47;97.44;98978.19;4974933;28;857;-58
2021/12/06 04:06:03;;;;;;;;;;;;;;;8.52;97.52;98980.50;4974633;28;939;-58
2021/12/06 04:08:30;;;;;;;;;;;;;;;8.55;97.18;98976.94;4974706;28;872;-58
2021/12/06 04:10:55;;;;;;;;;;;;;;;8.56;97.18;98984.03;4974815;28;1946;-58
2021/12/06 04:13:22;;;;;;;;;;;;;;;8.52;96.65;98988.78;4974695;28;892;-58
2021/12/06 04:15:49;;;;;;;;;;;;;;;8.34;96.39;98977.88;4974608;28;943;-57
2021/12/06 04:18:16;;;;;;;;;;;;;;;8.21;97.04;98985.88;4974614;28;892;-58
2021/12/06 04:20:42;;;;;;;;;;;;;;;8.10;96.80;98983.19;4974522;28;1602;-58
2021/12/06 04:23:09;;;;;;;;;;;;;;;8.00;96.95;98986.03;4974622;28;825;-58
2021/12/06 04:25:37;;;;;;;;;;;;;;;8.00;97.63;98995.09;4974832;28;828;-58
2021/12/06 04:28:06;;;;;;;;;;;;;;;8.04;98.44;99004.09;4974420;28;852;-58
2021/12/06 04:30:35;;;;;;;;;;;;;;;8.13;98.41;99006.41;4974470;28;1943;-58
2021/12/06 04:33:02;;;;;;;;;;;;;;;8.14;97.94;99003.22;4974341;28;904;-58
2021/12/06 04:35:30;;;;;;;;;;;;;;;8.17;98.06;98993.38;4973999;28;849;-57
2021/12/06 04:37:56;;;;;;;;;;;;;;;8.28;98.20;99020.81;4974386;28;890;-57
2021/12/06 04:40:23;;;;;;;;;;;;;;;8.40;98.43;99031.34;4974106;28;1244;-58
2021/12/06 04:42:50;;;;;;;;;;;;;;;8.51;98.19;99032.06;4974102;28;938;-58
2021/12/06 04:45:17;;;;;;;;;;;;;;;8.58;98.04;99033.97;4974012;28;859;-58
2021/12/06 04:47:43;;;;;;;;;;;;;;;8.61;97.82;99035.13;4973989;28;955;-58
2021/12/06 04:50:11;;;;;;;;;;;;;;;8.67;97.90;99033.50;4973985;28;1970;-58
2021/12/06 04:52:37;;;;;;;;;;;;;;;8.71;97.72;99037.78;4974029;28;825;-58
2021/12/06 04:55:06;;;;;;;;;;;;;;;8.58;97.26;99032.00;4973975;28;832;-58
2021/12/06 04:57:34;;;;;;;;;;;;;;;8.47;97.78;99034.06;4973762;28;915;-57
2021/12/06 05:00:08;;;;;;;;;;;;;;;8.42;97.89;99022.69;4974098;28;833;-58
2021/12/06 05:02:36;;;;;;;;;;;;;;;8.46;98.05;99032.50;4974028;28;833;-58
2021/12/06 05:05:12;;;;;;;;;;;;;;;8.50;98.13;99032.47;4974150;28;891;-58
2021/12/06 05:07:41;;;;;;;;;;;;;;;8.45;97.85;99030.13;4973756;28;849;-58
2021/12/06 05:10:09;;;;;;;;;;;;;;;8.51;98.19;99036.78;4973562;28;1950;-58
2021/12/06 05:12:36;;;;;;;;;;;;;;;8.58;98.16;99033.97;4973638;28;812;-58
2021/12/06 05:15:04;;;;;;;;;;;;;;;8.65;98.23;99042.16;4973582;28;896;-58
2021/12/06 05:17:30;;;;;;;;;;;;;;;8.73;98.32;99042.88;4973524;28;821;-58
2021/12/06 05:19:57;;;;;;;;;;;;;;;8.82;98.33;99040.44;4973544;28;824;-58
2021/12/06 05:22:24;;;;;;;;;;;;;;;8.94;98.32;99037.16;4973512;28;824;-58
2021/12/06 05:24:52;;;;;;;;;;;;;;;9.00;98.34;99034.72;4973387;28;865;-58
2021/12/06 05:27:23;;;;;;;;;;;;;;;9.08;98.24;99038.19;4973335;28;917;-58
2021/12/06 05:29:55;;;;;;;;;;;;;;;9.12;97.90;99047.19;4973158;28;1886;-58
2021/12/06 05:32:25;;;;;;;;;;;;;;;9.16;97.89;99053.47;4973182;28;909;-58
2021/12/06 05:34:57;;;;;;;;;;;;;;;9.23;98.01;99053.38;4973118;28;931;-58
2021/12/06 05:37:24;;;;;;;;;;;;;;;9.27;97.99;99056.88;4973239;28;929;-58
2021/12/06 05:39:50;;;;;;;;;;;;;;;9.31;97.80;99063.13;4950307;29;1427;-58
2021/12/06 05:42:17;;;;;;;;;;;;;;;9.31;97.60;99056.84;4953935;29;806;-58
2021/12/06 05:44:42;;;;;;;;;;;;;;;9.29;97.43;99046.22;4953877;29;880;-58
2021/12/06 05:47:09;;;;;;;;;;;;;;;9.25;97.67;99050.22;4953516;28;864;-58
2021/12/06 05:49:38;;;;;;;;;;;;;;;9.28;97.84;99047.41;4953302;29;1981;-58
2021/12/06 05:52:05;;;;;;;;;;;;;;;9.32;98.00;99045.38;4953674;29;945;-58
2021/12/06 05:54:32;;;;;;;;;;;;;;;9.37;98.16;99052.44;4953707;29;802;-58
2021/12/06 05:56:59;;;;;;;;;;;;;;;9.42;98.15;99054.72;4953572;29;888;-58
2021/12/06 05:59:26;;;;;;;;;;;;;;;9.56;98.07;99059.31;4953636;29;872;-58
2021/12/06 06:01:54;;;;;;;;;;;;;;;9.64;97.92;99066.25;4953643;29;848;-58
2021/12/06 06:04:21;;;;;;;;;;;;;;;9.71;98.09;99065.41;4953646;28;944;-58
2021/12/06 06:06:49;;;;;;;;;;;;;;;9.76;97.90;99067.69;4953515;29;857;-58
2021/12/06 06:09:16;;;;;;;;;;;;;;;9.54;97.04;99061.69;4953515;29;896;-58
2021/12/06 06:11:42;;;;;;;;;;;;;;;9.38;97.25;99062.25;4953460;29;1890;-58
2021/12/06 06:14:09;;;;;;;;;;;;;;;9.42;98.12;99059.47;4953494;29;862;-58
2021/12/06 06:16:46;;;;;;;;;;;;;;;9.47;97.54;99067.28;4953549;29;816;-58
2021/12/06 06:19:14;;;;;;;;;;;;;;;9.32;96.27;99072.94;4953461;29;979;-58
2021/12/06 06:21:41;;;;;;;;;;;;;;;9.22;96.25;99067.56;4953903;29;765;-58
2021/12/06 06:24:08;;;;;;;;;;;;;;;9.23;96.25;99067.16;4953601;29;805;-58
2021/12/06 06:26:33;;;;;;;;;;;;;;;9.17;96.08;99075.13;4953535;29;1202;-58
2021/12/06 06:29:00;;;;;;;;;;;;;;;9.12;95.84;99081.06;4953376;29;879;-58
2021/12/06 06:31:27;;;;;;;;;;;;;;;9.10;96.03;99077.16;4953334;29;1947;-58
2021/12/06 06:33:53;;;;;;;;;;;;;;;9.13;96.14;99087.34;4953162;29;928;-58
2021/12/06 06:36:19;;;;;;;;;;;;;;;9.27;96.10;99070.66;4953439;29;828;-58
2021/12/06 06:38:46;;;;;;;;;;;;;;;9.49;96.46;99079.47;4953621;29;1033;-58
2021/12/06 06:41:13;;;;;;;;;;;;;;;9.73;95.95;99087.84;4969448;28;1453;-58
2021/12/06 06:43:40;;;;;;;;;;;;;;;9.99;95.73;99086.31;4972461;28;841;-58
2021/12/06 06:46:06;;;;;;;;;;;;;;;10.18;95.29;99082.09;4972456;28;820;-58
2021/12/06 06:48:33;;;;;;;;;;;;;;;10.34;95.27;99090.56;4972438;28;809;-58
2021/12/06 06:51:01;;;;;;;;;;;;;;;10.51;95.10;99104.50;4972328;28;1968;-58
2021/12/06 06:53:27;;;;;;;;;;;;;;;10.53;95.05;99096.59;4972654;28;859;-58
2021/12/06 06:55:54;;;;;;;;;;;;;;;10.57;95.00;99111.91;4972289;28;943;-58
2021/12/06 06:58:21;;;;;;;;;;;;;;;10.55;94.84;99099.72;4972285;28;844;-58
2021/12/06 07:00:48;;;;;;;;;;;;;;;10.55;95.03;99105.25;4958578;28;821;-58
2021/12/06 07:03:15;;;;;;;;;;;;;;;10.53;94.97;99104.88;4976096;28;821;-58
2021/12/06 07:05:42;;;;;;;;;;;;;;;10.63;95.19;99103.94;4976160;28;829;-58
2021/12/06 07:08:08;;;;;;;;;;;;;;;10.75;95.49;99099.78;4975847;28;880;-58
2021/12/06 07:10:35;;;;;;;;;;;;;;;10.89;95.03;99098.75;4975843;28;1945;-58
2021/12/06 07:13:07;;;;;;;;;;;;;;;10.95;94.92;99103.38;4975823;28;915;-58
2021/12/06 07:15:35;;;;;;;;;;;;;;;10.88;94.46;99099.94;4976155;28;844;-58
2021/12/06 07:18:02;;;;;;;;;;;;;;;10.86;95.09;99096.81;4976123;28;817;-58
2021/12/06 07:20:30;;;;;;;;;;;;;;;10.91;95.29;99094.38;4975940;28;870;-58
2021/12/06 07:22:56;;;;;;;;;;;;;;;11.06;95.04;99100.44;4975757;28;916;-58
2021/12/06 07:25:23;;;;;;;;;;;;;;;11.34;95.29;99104.63;4975946;28;884;-58
2021/12/06 07:27:51;;;;;;;;;;;;;;;11.72;94.34;99101.53;4975778;28;900;-58
2021/12/06 07:30:18;;;;;;;;;;;;;;;11.94;94.19;99096.34;4975747;28;1945;-58
2021/12/06 07:32:45;;;;;;;;;;;;;;;12.04;93.73;99103.63;4975459;28;920;-58
2021/12/06 07:35:12;;;;;;;;;;;;;;;12.10;93.92;99094.81;4975919;28;825;-58
2021/12/06 07:37:39;;;;;;;;;;;;;;;12.21;93.67;99104.44;4975534;28;940;-58
2021/12/06 07:40:07;;;;;;;;;;;;;;;12.32;93.25;99103.41;4975129;28;1149;-58
2021/12/06 07:42:34;;;;;;;;;;;;;;;12.40;93.53;99094.50;4975318;28;870;-58
2021/12/06 07:45:02;;;;;;;;;;;;;;;12.69;93.03;99093.81;4975481;28;868;-58
2021/12/06 07:47:29;;;;;;;;;;;;;;;12.95;92.39;99093.94;4975276;28;892;-58
2021/12/06 07:49:55;;;;;;;;;;;;;;;13.11;92.11;99093.16;4957744;28;1903;-58
2021/12/06 07:52:22;;;;;;;;;;;;;;;13.16;91.84;99098.16;4975178;28;813;-59
2021/12/06 07:54:49;;;;;;;;;;;;;;;13.34;91.30;99092.19;4975100;28;853;-58
2021/12/06 07:57:15;;;;;;;;;;;;;;;13.70;90.73;99103.06;4975044;28;868;-59
2021/12/06 07:59:42;;;;;;;;;;;;;;;14.05;89.30;99098.44;4975155;28;837;-59
2021/12/06 08:02:09;;;;;;;;;;;;;;;14.39;88.92;99102.56;4975092;28;828;-59
2021/12/06 08:04:37;;;;;;;;;;;;;;;14.80;87.25;99100.84;4975100;28;866;-59
2021/12/06 08:07:04;;;;;;;;;;;;;;;15.10;86.23;99104.22;4974787;28;1023;-59
2021/12/06 08:09:30;;;;;;;;;;;;;;;14.79;86.42;99092.97;4974783;28;1966;-59
2021/12/06 08:11:58;;;;;;;;;;;;;;;14.64;86.67;99089.91;4973956;28;872;-59
2021/12/06 08:14:26;;;;;;;;;;;;;;;14.74;86.29;99088.75;4974677;28;907;-59
2021/12/06 08:16:53;;;;;;;;;;;;;;;14.74;86.18;99083.19;4974555;28;908;-59
2021/12/06 08:19:20;;;;;;;;;;;;;;;14.40;86.80;99076.31;4974709;28;860;-59
2021/12/06 08:21:47;;;;;;;;;;;;;;;14.22;88.20;99076.09;4974596;28;887;-59
2021/12/06 08:24:14;;;;;;;;;;;;;;;14.14;88.53;99075.53;4974454;28;966;-59
2021/12/06 08:26:41;;;;;;;;;;;;;;;14.07;88.71;99075.75;4974594;28;820;-59
2021/12/06 08:29:11;;;;;;;;;;;;;;;13.96;88.93;99072.53;4974435;28;864;-59
2021/12/06 08:31:41;;;;;;;;;;;;;;;13.73;88.81;99073.63;4974152;28;1948;-58
2021/12/06 08:34:09;;;;;;;;;;;;;;;13.51;89.13;99073.47;4956973;28;920;-59
2021/12/06 08:36:36;;;;;;;;;;;;;;;13.35;89.22;99066.75;4974280;28;798;-59
2021/12/06 08:39:04;;;;;;;;;;;;;;;13.27;89.03;99063.38;4974581;28;947;-59
2021/12/06 08:41:31;;;;;;;;;;;;;;;13.24;86.11;99057.91;4974000;28;1278;-58
2021/12/06 08:43:57;;;;;;;;;;;;;;;13.57;85.10;99052.25;4974092;28;924;-58
2021/12/06 08:46:26;;;;;;;;;;;;;;;14.08;84.07;99060.63;4974114;28;832;-58
2021/12/06 08:48:54;;;;;;;;;;;;;;;14.62;84.24;99062.53;4973935;28;975;-58
2021/12/06 08:51:29;;;;;;;;;;;;;;;15.00;82.62;99047.72;4974008;28;1972;-58
2021/12/06 08:53:58;;;;;;;;;;;;;;;15.28;82.51;99047.94;4974497;28;880;-58
2021/12/06 08:56:24;;;;;;;;;;;;;;;15.12;83.04;99046.09;4973942;28;944;-58
2021/12/06 08:58:51;;;;;;;;;;;;;;;14.94;84.01;99046.75;4974073;28;982;-58
2021/12/06 09:01:18;;;;;;;;;;;;;;;14.87;84.48;99047.78;4973829;28;939;-58
2021/12/06 09:03:45;;;;;;;;;;;;;;;15.03;85.04;99044.03;4973752;28;853;-58
2021/12/06 09:06:12;;;;;;;;;;;;;;;15.14;84.87;99031.75;4974071;28;872;-58
2021/12/06 09:08:41;;;;;;;;;;;;;;;15.26;85.00;99040.03;4974232;28;844;-58
2021/12/06 09:11:08;;;;;;;;;;;;;;;15.39;84.26;99036.41;4973510;28;1894;-58
2021/12/06 09:13:36;;;;;;;;;;;;;;;15.51;84.18;99033.56;4973490;28;901;-58
2021/12/06 09:16:04;;;;;;;;;;;;;;;15.47;83.76;99030.13;4973602;28;829;-58
2021/12/06 09:18:34;;;;;;;;;;;;;;;15.36;83.98;99024.16;4973561;28;924;-58
2021/12/06 09:21:02;;;;;;;;;;;;;;;15.08;84.77;99012.06;4973604;28;877;-58
2021/12/06 09:23:28;;;;;;;;;;;;;;;15.05;85.15;99005.41;4973469;28;888;-58
2021/12/06 09:25:55;;;;;;;;;;;;;;;15.08;85.05;99006.50;4973399;28;860;-58
2021/12/06 09:28:25;;;;;;;;;;;;;;;15.20;84.89;98999.31;4973292;28;880;-58
2021/12/06 09:30:53;;;;;;;;;;;;;;;15.27;85.00;98999.81;4973295;28;1886;-58
2021/12/06 09:33:20;;;;;;;;;;;;;;;15.23;85.04;98990.06;4973288;28;821;-58
2021/12/06 09:35:48;;;;;;;;;;;;;;;15.07;84.88;98983.47;4973398;28;862;-58
2021/12/06 09:38:16;;;;;;;;;;;;;;;14.90;85.51;98991.22;4973141;28;900;-58
2021/12/06 09:40:45;;;;;;;;;;;;;;;14.72;85.39;98979.94;4972906;28;1311;-58
2021/12/06 09:43:13;;;;;;;;;;;;;;;14.55;85.35;98982.13;4973115;28;932;-58
2021/12/06 09:45:41;;;;;;;;;;;;;;;14.38;83.16;98978.69;4973033;28;817;-58
2021/12/06 09:48:08;;;;;;;;;;;;;;;14.26;82.10;98971.94;4955711;28;947;-58
2021/12/06 09:50:56;;;;;;;;;;;;;;;14.29;82.18;98971.03;4972945;28;1973;-58
2021/12/06 09:53:24;;;;;;;;;;;;;;;14.36;82.04;98975.59;4972887;28;1734;-58
2021/12/06 09:55:52;;;;;;;;;;;;;;;14.41;80.73;98977.78;4972920;28;873;-58
2021/12/06 09:58:19;;;;;;;;;;;;;;;14.63;78.13;98961.16;4973527;28;790;-58
2021/12/06 10:00:48;;;;;;;;;;;;;;;14.86;76.16;98967.53;4972977;28;855;-58
2021/12/06 10:03:23;;;;;;;;;;;;;;;14.99;74.11;98962.69;4972695;28;1174;-58
2021/12/06 10:05:50;;;;;;;;;;;;;;;15.13;72.97;98955.84;4972818;28;947;-58
2021/12/06 10:08:17;;;;;;;;;;;;;;;15.23;72.29;98967.78;4972859;28;824;-58
2021/12/06 10:10:43;;;;;;;;;;;;;;;15.16;72.73;98957.69;4972752;28;1906;-58
2021/12/06 10:13:09;;;;;;;;;;;;;;;14.99;73.40;98959.13;4972705;28;916;-58
2021/12/06 10:15:36;;;;;;;;;;;;;;;14.89;74.06;98952.72;4972757;28;845;-58
2021/12/06 10:18:04;;;;;;;;;;;;;;;14.87;74.54;98952.38;4955425;28;935;-58
2021/12/06 10:20:31;;;;;;;;;;;;;;;14.96;73.74;98949.69;4972821;28;952;-58
2021/12/06 10:22:58;;;;;;;;;;;;;;;15.08;73.33;98943.28;4972701;28;860;-58
2021/12/06 10:25:32;;;;;;;;;;;;;;;15.21;73.22;98947.97;4972684;28;837;-58
2021/12/06 10:28:04;;;;;;;;;;;;;;;15.61;73.60;98953.59;4972501;28;825;-58
2021/12/06 10:30:35;;;;;;;;;;;;;;;16.02;72.81;98959.97;4972653;28;1957;-58
2021/12/06 10:33:05;;;;;;;;;;;;;;;15.96;70.97;98947.91;4955311;28;936;-58
2021/12/06 10:35:32;;;;;;;;;;;;;;;16.18;70.85;98947.78;4975638;28;880;-58
2021/12/06 10:37:59;;;;;;;;;;;;;;;16.27;70.09;98938.66;4976460;28;1035;-58
2021/12/06 10:40:27;;;;;;;;;;;;;;;16.07;71.27;98941.88;4976159;28;1279;-58
2021/12/06 10:42:54;;;;;;;;;;;;;;;15.86;71.27;98932.38;4976433;28;909;-58
2021/12/06 10:45:29;;;;;;;;;;;;;;;15.86;71.10;98932.38;4959186;28;857;-58
2021/12/06 10:48:08;;;;;;;;;;;;;;;15.97;71.23;98921.56;4976287;28;908;-58
2021/12/06 10:50:37;;;;;;;;;;;;;;;16.17;71.20;98920.34;4976048;28;1967;-58
2021/12/06 10:53:04;;;;;;;;;;;;;;;16.76;69.94;98934.19;4976195;28;911;-58
2021/12/06 10:55:31;;;;;;;;;;;;;;;17.12;69.07;98919.44;4976277;28;958;-58
2021/12/06 10:58:02;;;;;;;;;;;;;;;17.45;67.33;98915.91;4976056;28;857;-58
2021/12/06 11:00:43;;;;;;;;;;;;;;;17.60;66.50;98914.00;4976085;28;853;-59
2021/12/06 11:03:21;;;;;;;;;;;;;;;17.47;67.48;98916.22;4975979;28;878;-59
2021/12/06 11:05:51;;;;;;;;;;;;;;;18.15;65.54;98910.16;4975983;28;836;-58
2021/12/06 11:08:19;;;;;;;;;;;;;;;18.50;62.83;98907.59;4975840;28;924;-59
2021/12/06 11:10:52;;;;;;;;;;;;;;;18.30;63.38;98919.38;4975753;28;1895;-59
2021/12/06 11:13:23;;;;;;;;;;;;;;;17.99;63.82;98914.16;4975979;28;809;-58
2021/12/06 11:15:58;;;;;;;;;;;;;;;17.28;64.58;98910.72;4976029;28;939;-58
2021/12/06 11:18:42;;;;;;;;;;;;;;;16.64;68.56;98911.59;4975670;28;877;-58
2021/12/06 11:21:17;;;;;;;;;;;;;;;16.59;69.87;98908.63;4975725;28;828;-58
2021/12/06 11:24:03;;;;;;;;;;;;;;;16.88;68.13;98905.38;4975907;28;861;-58
2021/12/06 11:26:30;;;;;;;;;;;;;;;16.81;68.23;98906.44;4975572;28;880;-58
2021/12/06 11:29:06;;;;;;;;;;;;;;;16.64;69.01;98908.00;4975577;28;837;-58
2021/12/06 11:31:32;;;;;;;;;;;;;;;16.44;69.50;98909.25;4975290;28;1886;-58
2021/12/06 11:34:00;;;;;;;;;;;;;;;16.23;69.81;98907.38;4975516;28;883;-58
2021/12/06 11:36:28;;;;;;;;;;;;;;;15.97;71.42;98910.41;4975428;28;845;-58
2021/12/06 11:39:02;;;;;;;;;;;;;;;15.82;71.30;98910.22;4975714;28;963;-58
2021/12/06 11:41:30;;;;;;;;;;;;;;;15.84;71.18;98907.75;4975041;28;1396;-58
2021/12/06 11:43:58;;;;;;;;;;;;;;;16.27;70.93;98905.19;4975276;28;853;-58
2021/12/06 11:46:29;;;;;;;;;;;;;;;16.72;69.68;98909.22;4974218;28;873;-58
2021/12/06 11:48:55;;;;;;;;;;;;;;;16.68;69.56;98903.03;4975460;28;912;-58
2021/12/06 11:51:23;;;;;;;;;;;;;;;16.47;69.46;98894.38;4976072;28;1907;-58
2021/12/06 11:53:52;;;;;;;;;;;;;;;16.12;69.78;98910.59;4975601;28;800;-58
2021/12/06 11:56:23;;;;;;;;;;;;;;;15.88;70.84;98888.88;4974870;28;951;-58
2021/12/06 11:58:52;;;;;;;;;;;;;;;15.67;71.39;98896.06;4975205;28;840;-58
2021/12/06 12:01:25;;;;;;;;;;;;;;;15.58;72.72;98898.06;4974996;28;837;-58
2021/12/06 12:03:57;;;;;;;;;;;;;;;15.50;73.72;98891.97;4975154;28;981;-58
2021/12/06 12:06:31;;;;;;;;;;;;;;;15.35;73.95;98891.75;4975143;28;824;-58
2021/12/06 12:09:25;;;;;;;;;;;;;;;15.32;74.07;98889.91;4975110;28;1053;-58
2021/12/06 12:11:58;;;;;;;;;;;;;;;15.32;74.83;98882.31;4972691;28;1878;-58
2021/12/06 12:14:34;;;;;;;;;;;;;;;15.24;75.11;98889.41;4974738;28;824;-58
2021/12/06 12:17:02;;;;;;;;;;;;;;;15.17;75.25;98884.13;4974730;28;821;-58
2021/12/06 12:19:29;;;;;;;;;;;;;;;15.08;75.62;98892.41;4974793;28;866;-58
2021/12/06 12:21:57;;;;;;;;;;;;;;;14.97;76.53;98886.47;4974524;28;917;-58
2021/12/06 12:24:23;;;;;;;;;;;;;;;14.90;76.46;98888.28;4974433;28;935;-58
2021/12/06 12:27:01;;;;;;;;;;;;;;;14.82;77.05;98886.22;4974450;28;927;-58
2021/12/06 12:29:28;;;;;;;;;;;;;;;14.74;77.11;98894.03;4974259;28;939;-58
2021/12/06 12:32:01;;;;;;;;;;;;;;;14.67;77.66;98888.75;4974338;28;1902;-58
2021/12/06 12:34:30;;;;;;;;;;;;;;;14.64;78.55;98892.44;4974450;28;977;-58
2021/12/06 12:36:57;;;;;;;;;;;;;;;14.57;78.71;98887.13;4974309;28;916;-58
2021/12/06 12:39:25;;;;;;;;;;;;;;;14.46;79.72;98879.13;4974353;28;1203;-58
2021/12/06 12:41:58;;;;;;;;;;;;;;;14.27;80.69;98886.53;4974431;28;821;-58
2021/12/06 12:44:40;;;;;;;;;;;;;;;14.18;81.72;98894.81;4974211;28;844;-57
2021/12/06 12:47:14;;;;;;;;;;;;;;;14.06;82.28;98886.06;4974156;28;817;-57
2021/12/06 12:49:45;;;;;;;;;;;;;;;13.96;83.86;98886.41;4974090;28;1242;-57
2021/12/06 12:52:12;;;;;;;;;;;;;;;13.84;84.92;98893.53;4973834;28;1738;-63
2021/12/06 12:54:42;;;;;;;;;;;;;;;13.48;87.50;98898.25;4974267;28;872;-72
2021/12/06 12:57:16;;;;;;;;;;;;;;;13.25;89.21;98896.53;4956180;28;1149;-65
2021/12/06 12:59:50;;;;;;;;;;;;;;;13.12;89.87;98898.53;4973946;28;841;-65
2021/12/06 13:02:34;;;;;;;;;;;;;;;13.07;90.87;98896.28;4973968;28;915;-66
2021/12/06 13:05:00;;;;;;;;;;;;;;;13.04;91.81;98894.41;4973817;28;912;-66
2021/12/06 13:07:28;;;;;;;;;;;;;;;13.06;91.77;98894.75;4973947;28;863;-66
2021/12/06 13:09:56;;;;;;;;;;;;;;;13.16;91.85;98898.41;4973647;28;1957;-67
2021/12/06 13:12:21;;;;;;;;;;;;;;;13.24;91.84;98894.97;4973678;28;868;-67
2021/12/06 13:14:59;;;;;;;;;;;;;;;13.37;91.73;98903.31;4973621;28;829;-68
2021/12/06 13:17:36;;;;;;;;;;;;;;;13.58;91.16;98907.44;4973512;28;880;-68
2021/12/06 13:20:10;;;;;;;;;;;;;;;13.76;90.44;98908.88;4973547;28;872;-68
2021/12/06 13:25:39;;;;;;;;;;;;;;;14.52;88.12;98905.13;4973463;28;699;-69
2021/12/06 13:28:07;;;;;;;;;;;;;;;14.59;87.27;98915.25;4973582;28;841;-69
2021/12/06 13:30:41;;;;;;;;;;;;;;;14.63;87.38;98910.34;4973338;28;1890;-69
2021/12/06 13:33:11;;;;;;;;;;;;;;;14.68;87.27;98902.19;4955908;28;1268;-69
2021/12/06 13:35:47;;;;;;;;;;;;;;;14.68;87.16;98904.22;4973308;28;881;-69
2021/12/06 13:38:32;;;;;;;;;;;;;;;14.56;87.38;98905.03;4973529;28;983;-70
2021/12/06 13:40:59;;;;;;;;;;;;;;;14.43;88.09;98894.72;4973099;28;1284;-70
2021/12/06 13:43:32;;;;;;;;;;;;;;;14.39;88.51;98896.84;4973452;28;816;-70
2021/12/06 13:46:01;;;;;;;;;;;;;;;14.27;88.80;98892.09;4973109;28;805;-69
2021/12/06 13:48:37;;;;;;;;;;;;;;;14.18;89.05;98887.22;4973401;28;860;-70
2021/12/06 13:51:22;;;;;;;;;;;;;;;14.10;89.36;98891.47;4973376;28;1910;-70
2021/12/06 13:53:59;;;;;;;;;;;;;;;14.00;89.78;98892.63;4955940;28;1173;-70
2021/12/06 13:56:39;;;;;;;;;;;;;;;13.89;90.14;98884.66;4973135;28;884;-70
2021/12/06 13:59:07;;;;;;;;;;;;;;;13.83;90.43;98894.78;4973000;28;813;-70
2021/12/06 14:01:35;;;;;;;;;;;;;;;13.75;90.52;98890.66;4955864;28;1153;-70
2021/12/06 14:04:06;;;;;;;;;;;;;;;13.67;90.78;98884.56;4973312;28;832;-70
2021/12/06 14:07:07;;;;;;;;;;;;;;;13.59;90.81;98886.81;4972906;28;833;-70